createdAt,value
2023-01-27T00:00:59.098Z,8.600000381
2023-01-27T00:02:00.229Z,9.100000381
2023-01-27T00:03:00.657Z,8.899999619
2023-01-27T00:04:01.213Z,8.100000381
2023-01-27T00:05:01.541Z,10.39999962
2023-01-27T00:06:01.935Z,8.800000191
2023-01-27T00:07:02.448Z,8.699999809
2023-01-27T00:08:03.455Z,8.699999809
2023-01-27T00:09:04.008Z,8.399999619
2023-01-27T00:10:04.383Z,9
2023-01-27T00:11:04.924Z,8.899999619
2023-01-27T00:12:06.220Z,9.199999809
2023-01-27T00:13:06.803Z,9.5
2023-01-27T00:14:07.241Z,8.600000381
2023-01-27T00:15:07.653Z,9.399999619
2023-01-27T00:16:08.334Z,9.699999809
2023-01-27T00:17:08.621Z,9
2023-01-27T00:18:09.184Z,9.600000381
2023-01-27T00:19:09.570Z,10.30000019
2023-01-27T00:20:10.110Z,10
2023-01-27T00:21:10.507Z,9.399999619
2023-01-27T00:22:10.861Z,8.699999809
2023-01-27T00:23:11.430Z,8.800000191
2023-01-27T00:24:11.992Z,9.100000381
2023-01-27T00:25:12.224Z,9.600000381
2023-01-27T00:26:12.729Z,8.300000191
2023-01-27T00:27:13.169Z,9.600000381
2023-01-27T00:28:13.728Z,8.600000381
2023-01-27T00:29:14.241Z,9.300000191
2023-01-27T00:30:14.831Z,8.5
2023-01-27T00:31:15.278Z,9.899999619
2023-01-27T00:32:16.210Z,9.100000381
2023-01-27T00:33:16.817Z,9.399999619
2023-01-27T00:34:17.177Z,9.5
2023-01-27T00:35:17.654Z,9.399999619
2023-01-27T00:36:18.140Z,8.800000191
2023-01-27T00:37:19.929Z,8.899999619
2023-01-27T00:38:50.661Z,9.600000381
2023-01-27T00:39:51.147Z,10.19999981
2023-01-27T00:40:51.553Z,9.199999809
2023-01-27T00:41:51.936Z,10.69999981
2023-01-27T00:42:53.073Z,10.60000038
2023-01-27T00:43:53.514Z,9.300000191
2023-01-27T00:44:53.904Z,9.100000381
2023-01-27T00:45:54.409Z,9.5
2023-01-27T00:46:54.878Z,9.199999809
2023-01-27T00:47:55.304Z,8.800000191
2023-01-27T00:48:55.890Z,8.399999619
2023-01-27T00:49:56.303Z,8.199999809
2023-01-27T00:50:56.802Z,9.399999619
2023-01-27T00:51:57.264Z,8.300000191
2023-01-27T00:52:58.506Z,8.800000191
2023-01-27T00:53:59.021Z,9.300000191
2023-01-27T00:54:59.404Z,8.100000381
2023-01-27T00:55:59.911Z,8.199999809
2023-01-27T00:57:00.323Z,8.5
2023-01-27T00:58:00.689Z,8.800000191
2023-01-27T00:59:02.227Z,8.300000191
2023-01-27T01:00:02.649Z,9
2023-01-27T01:01:03.125Z,9.199999809
2023-01-27T01:02:03.620Z,7.599999905
2023-01-27T01:03:04.954Z,9.600000381
2023-01-27T01:04:05.447Z,9.199999809
2023-01-27T01:05:05.838Z,9.699999809
2023-01-27T01:06:06.485Z,8.600000381
2023-01-27T01:07:06.954Z,8.800000191
2023-01-27T01:08:07.923Z,7.699999809
2023-01-27T01:09:08.412Z,9.899999619
2023-01-27T01:10:08.799Z,9.300000191
2023-01-27T01:11:09.234Z,10.10000038
2023-01-27T01:12:09.699Z,8.699999809
2023-01-27T01:13:10.886Z,8.600000381
2023-01-27T01:14:11.473Z,8.699999809
2023-01-27T01:15:11.958Z,9
2023-01-27T01:16:12.455Z,7.5
2023-01-27T01:17:12.923Z,8.399999619
2023-01-27T01:18:13.337Z,7.400000095
2023-01-27T01:19:13.822Z,7.5
2023-01-27T01:20:14.572Z,7.900000095
2023-01-27T01:21:14.696Z,7.5
2023-01-27T01:22:15.256Z,7.300000191
2023-01-27T01:23:16.401Z,8.899999619
2023-01-27T01:24:17.089Z,7.900000095
2023-01-27T01:25:17.360Z,7.699999809
2023-01-27T01:26:17.889Z,7
2023-01-27T01:27:18.329Z,7.699999809
2023-01-27T01:28:49.788Z,8
2023-01-27T01:29:50.207Z,7.699999809
2023-01-27T01:30:51.381Z,7.300000191
2023-01-27T01:31:51.670Z,7.199999809
2023-01-27T01:32:52.907Z,7.699999809
2023-01-27T01:33:54.200Z,7.300000191
2023-01-27T01:34:54.654Z,7.199999809
2023-01-27T01:35:55.236Z,7.300000191
2023-01-27T01:36:55.667Z,7.099999905
2023-01-27T01:37:57.036Z,6.699999809
2023-01-27T01:38:57.506Z,7.699999809
2023-01-27T01:39:58.487Z,8.100000381
2023-01-27T01:40:59.476Z,7.199999809
2023-01-27T01:41:59.886Z,7.199999809
2023-01-27T01:43:00.382Z,7.800000191
2023-01-27T01:44:00.820Z,7
2023-01-27T01:45:01.217Z,7.300000191
2023-01-27T01:46:01.764Z,7.599999905
2023-01-27T01:47:02.179Z,7.599999905
2023-01-27T01:48:02.649Z,7.400000095
2023-01-27T01:49:03.067Z,8.199999809
2023-01-27T01:50:03.491Z,7.599999905
2023-01-27T01:51:03.984Z,7.800000191
2023-01-27T01:52:04.412Z,7.800000191
2023-01-27T01:53:05.833Z,8
2023-01-27T01:54:06.298Z,7
2023-01-27T01:55:06.692Z,7.900000095
2023-01-27T01:56:07.218Z,7.5
2023-01-27T01:57:07.618Z,7.800000191
2023-01-27T01:58:08.894Z,7.800000191
2023-01-27T01:59:10.026Z,8.5
2023-01-27T02:00:10.560Z,8
2023-01-27T02:01:11.080Z,7.699999809
2023-01-27T02:02:11.499Z,9
2023-01-27T02:03:12.558Z,8.100000381
2023-01-27T02:04:13.072Z,8.800000191
2023-01-27T02:05:13.775Z,8.699999809
2023-01-27T02:06:14.019Z,8.300000191
2023-01-27T02:07:14.474Z,9.699999809
2023-01-27T02:08:15.421Z,8.300000191
2023-01-27T02:09:16.001Z,8.800000191
2023-01-27T02:10:16.405Z,9.199999809
2023-01-27T02:11:16.878Z,8.699999809
2023-01-27T02:12:17.399Z,9.100000381
2023-01-27T02:13:49.117Z,8.100000381
2023-01-27T02:14:49.573Z,9.100000381
2023-01-27T02:15:49.966Z,8.399999619
2023-01-27T02:16:50.523Z,8.899999619
2023-01-27T02:17:50.829Z,9
2023-01-27T02:18:51.280Z,8.899999619
2023-01-27T02:19:51.750Z,9.600000381
2023-01-27T02:20:52.187Z,9.300000191
2023-01-27T02:21:52.740Z,9.300000191
2023-01-27T02:22:53.882Z,9.5
2023-01-27T02:23:54.911Z,8.699999809
2023-01-27T02:24:55.374Z,9.300000191
2023-01-27T02:25:55.785Z,10
2023-01-27T02:26:56.201Z,9.899999619
2023-01-27T02:27:56.593Z,9.899999619
2023-01-27T02:28:56.988Z,9.399999619
2023-01-27T02:29:57.400Z,9.199999809
2023-01-27T02:30:57.936Z,10.19999981
2023-01-27T02:31:58.215Z,9.100000381
2023-01-27T02:32:59.396Z,10.30000019
2023-01-27T02:34:00.474Z,9.399999619
2023-01-27T02:35:00.842Z,9.600000381
2023-01-27T02:36:01.282Z,9.300000191
2023-01-27T02:37:01.736Z,10.30000019
2023-01-27T02:38:02.946Z,9.899999619
2023-01-27T02:39:03.370Z,10
2023-01-27T02:40:03.717Z,10.10000038
2023-01-27T02:41:04.135Z,11.19999981
2023-01-27T02:42:04.488Z,9
2023-01-27T02:43:05.409Z,9.5
2023-01-27T02:44:06.432Z,8.600000381
2023-01-27T02:45:06.821Z,8.899999619
2023-01-27T02:46:07.280Z,9.300000191
2023-01-27T02:47:07.639Z,9.699999809
2023-01-27T02:48:08.971Z,9.600000381
2023-01-27T02:49:09.390Z,10.60000038
2023-01-27T02:50:09.773Z,9.300000191
2023-01-27T02:51:10.485Z,9.300000191
2023-01-27T02:52:10.854Z,9.600000381
2023-01-27T02:53:12.229Z,9.399999619
2023-01-27T02:54:12.703Z,9.5
2023-01-27T02:55:13.411Z,9.800000191
2023-01-27T02:56:13.575Z,9.100000381
2023-01-27T02:57:14.000Z,10.39999962
2023-01-27T02:58:14.418Z,10.39999962
2023-01-27T02:59:14.956Z,10.10000038
2023-01-27T03:00:15.372Z,9.300000191
2023-01-27T03:01:15.854Z,11.19999981
2023-01-27T03:02:16.259Z,9.899999619
2023-01-27T03:03:16.630Z,10.80000019
2023-01-27T03:04:17.136Z,10.30000019
2023-01-27T03:05:17.537Z,10
2023-01-27T03:06:48.427Z,10.39999962
2023-01-27T03:07:48.782Z,9.699999809
2023-01-27T03:08:49.225Z,11.69999981
2023-01-27T03:09:49.610Z,9.5
2023-01-27T03:10:49.992Z,10
2023-01-27T03:11:50.463Z,9.899999619
2023-01-27T03:12:50.830Z,10.69999981
2023-01-27T03:13:51.978Z,9.600000381
2023-01-27T03:14:52.432Z,10
2023-01-27T03:15:52.887Z,10.19999981
2023-01-27T03:16:53.319Z,11.10000038
2023-01-27T03:17:53.682Z,9.100000381
2023-01-27T03:18:54.164Z,9.699999809
2023-01-27T03:19:54.563Z,10.19999981
2023-01-27T03:20:54.954Z,10.19999981
2023-01-27T03:21:55.404Z,9.5
2023-01-27T03:22:55.761Z,10.5
2023-01-27T03:23:57.010Z,10.10000038
2023-01-27T03:24:57.445Z,9.699999809
2023-01-27T03:25:57.800Z,10.89999962
2023-01-27T03:26:58.381Z,10.80000019
2023-01-27T03:27:58.715Z,10.39999962
2023-01-27T03:28:59.192Z,10.10000038
2023-01-27T03:29:59.562Z,9.5
2023-01-27T03:30:59.990Z,8.899999619
2023-01-27T03:32:00.412Z,9.600000381
2023-01-27T03:33:00.773Z,10.19999981
2023-01-27T03:34:02.043Z,9.699999809
2023-01-27T03:35:02.465Z,9.600000381
2023-01-27T03:36:02.868Z,9
2023-01-27T03:37:03.411Z,9.399999619
2023-01-27T03:38:04.694Z,9.300000191
2023-01-27T03:39:05.072Z,9.199999809
2023-01-27T03:40:05.548Z,9.699999809
2023-01-27T03:41:05.967Z,9.100000381
2023-01-27T03:42:06.398Z,9.600000381
2023-01-27T03:43:06.877Z,9.300000191
2023-01-27T03:44:07.885Z,9
2023-01-27T03:45:08.269Z,9.300000191
2023-01-27T03:46:08.857Z,10.39999962
2023-01-27T03:47:09.213Z,9.5
2023-01-27T03:48:09.693Z,10.69999981
2023-01-27T03:49:10.128Z,9.5
2023-01-27T03:50:10.706Z,10.5
2023-01-27T03:51:11.176Z,10.69999981
2023-01-27T03:52:11.597Z,11
2023-01-27T03:53:12.084Z,11.30000019
2023-01-27T03:54:13.372Z,9.800000191
2023-01-27T03:55:14.052Z,9.899999619
2023-01-27T03:56:14.283Z,10.5
2023-01-27T03:57:14.682Z,11.39999962
2023-01-27T03:58:15.050Z,9.399999619
2023-01-27T03:59:15.430Z,10.80000019
2023-01-27T04:00:15.849Z,10.69999981
2023-01-27T04:01:16.323Z,9.199999809
2023-01-27T04:02:16.661Z,10.10000038
2023-01-27T04:03:48.255Z,9.899999619
2023-01-27T04:04:48.674Z,9.399999619
2023-01-27T04:05:49.047Z,10.80000019
2023-01-27T04:06:49.532Z,10.5
2023-01-27T04:07:49.950Z,10
2023-01-27T04:08:50.885Z,10.5
2023-01-27T04:09:51.338Z,10.69999981
2023-01-27T04:10:51.755Z,10.5
2023-01-27T04:11:52.212Z,9.199999809
2023-01-27T04:12:52.630Z,11.5
2023-01-27T04:13:53.696Z,11.39999962
2023-01-27T04:14:54.220Z,10.39999962
2023-01-27T04:15:54.624Z,10.60000038
2023-01-27T04:16:55.087Z,10.19999981
2023-01-27T04:17:55.539Z,11
2023-01-27T04:18:55.893Z,10.30000019
2023-01-27T04:19:56.385Z,10.60000038
2023-01-27T04:20:56.750Z,10.89999962
2023-01-27T04:21:57.203Z,10.10000038
2023-01-27T04:22:57.617Z,10.19999981
2023-01-27T04:23:58.709Z,10.10000038
2023-01-27T04:24:59.263Z,9.899999619
2023-01-27T04:25:59.647Z,11.30000019
2023-01-27T04:27:00.010Z,9.699999809
2023-01-27T04:28:00.460Z,10
2023-01-27T04:29:00.832Z,10.80000019
2023-01-27T04:30:01.266Z,10.5
2023-01-27T04:31:01.751Z,10
2023-01-27T04:32:02.088Z,9.699999809
2023-01-27T04:33:02.595Z,10.60000038
2023-01-27T04:34:03.742Z,9.5
2023-01-27T04:35:04.117Z,11.60000038
2023-01-27T04:36:04.697Z,10.60000038
2023-01-27T04:37:05.082Z,9.600000381
2023-01-27T04:38:05.487Z,10.69999981
2023-01-27T04:39:06.416Z,10.39999962
2023-01-27T04:40:06.791Z,10.30000019
2023-01-27T04:41:07.248Z,10.39999962
2023-01-27T04:42:07.626Z,10.30000019
2023-01-27T04:43:08.031Z,9.600000381
2023-01-27T04:44:09.197Z,10.10000038
2023-01-27T04:45:09.580Z,10.60000038
2023-01-27T04:46:10.267Z,10.30000019
2023-01-27T04:47:10.801Z,11.39999962
2023-01-27T04:48:11.263Z,10.60000038
2023-01-27T04:49:11.622Z,10.60000038
2023-01-27T04:50:12.023Z,10.80000019
2023-01-27T04:51:12.440Z,10.10000038
2023-01-27T04:52:12.815Z,9.600000381
2023-01-27T04:53:13.244Z,11
2023-01-27T04:54:13.633Z,10.39999962
2023-01-27T04:55:14.478Z,10.89999962
2023-01-27T04:56:14.449Z,10.60000038
2023-01-27T04:57:14.830Z,10.5
2023-01-27T04:58:16.248Z,11.10000038
2023-01-27T04:59:46.981Z,10.10000038
2023-01-27T05:00:47.438Z,10.89999962
2023-01-27T05:01:47.895Z,11.30000019
2023-01-27T05:02:48.272Z,10
2023-01-27T05:03:48.675Z,11.69999981
2023-01-27T05:04:49.028Z,9.899999619
2023-01-27T05:05:49.556Z,9.699999809
2023-01-27T05:06:49.937Z,10.39999962
2023-01-27T05:07:50.453Z,11.69999981
2023-01-27T05:08:51.411Z,10.19999981
2023-01-27T05:09:51.800Z,11.39999962
2023-01-27T05:10:52.306Z,10.5
2023-01-27T05:11:52.683Z,10.80000019
2023-01-27T05:12:53.061Z,9.800000191
2023-01-27T05:13:54.241Z,10.89999962
2023-01-27T05:14:54.571Z,11.89999962
2023-01-27T05:15:55.056Z,9.899999619
2023-01-27T05:16:55.515Z,11.60000038
2023-01-27T05:17:55.864Z,10.39999962
2023-01-27T05:18:56.381Z,10.30000019
2023-01-27T05:19:56.767Z,9.5
2023-01-27T05:20:57.162Z,10.5
2023-01-27T05:21:57.687Z,10.19999981
2023-01-27T05:22:58.056Z,10.60000038
